Time;durP1;ratioP1;P1;durP2;ratioP2;P2;SDS_P1;SDS_P2;PMS_P1;PMS_P2;Temp;Humidity;BMP_temperature;BMP_pressure;BME280_temperature;BME280_humidity;BME280_pressure;Samples;Min_cycle;Max_cycle;Signal;HPM_P1;HPM_P2
2022/11/15 00:02:09;;;;;;;16.37;12.80;;;;;;;10.08;99.84;97925.66;5140072;23;20718;-91
2022/11/15 00:04:31;;;;;;;15.23;12.47;;;;;;;10.08;100.00;97923.88;5137327;23;20585;-92
2022/11/15 00:06:54;;;;;;;15.03;11.83;;;;;;;10.10;99.73;97921.16;5138603;23;20585;-92
2022/11/15 00:09:16;;;;;;;14.07;11.40;;;;;;;10.11;99.77;97920.22;5138111;23;20595;-92
2022/11/15 00:11:38;;;;;;;12.80;9.77;;;;;;;10.10;99.96;97922.00;5137413;23;20687;-91
2022/11/15 00:14:02;;;;;;;14.20;9.90;;;;;;;10.12;100.00;97929.72;5136882;23;20565;-91
2022/11/15 00:16:23;;;;;;;11.47;9.17;;;;;;;10.12;100.00;97921.91;5139431;23;20591;-92
2022/11/15 00:18:45;;;;;;;11.73;8.80;;;;;;;10.11;100.00;97923.66;5138392;23;21091;-93
2022/11/15 00:21:12;;;;;;;11.20;8.93;;;;;;;10.09;99.90;97920.34;5138916;22;20780;-92
2022/11/15 00:27:17;;;;;;;13.80;9.53;;;;;;;10.10;99.98;97911.59;5141134;22;20162;-92
2022/11/15 00:29:43;;;;;;;11.23;7.90;;;;;;;10.08;100.00;97913.44;5143246;23;20631;-92
2022/11/15 00:32:57;;;;;;;13.70;10.02;;;;;;;10.09;100.00;97906.47;5136640;23;20580;-91
2022/11/15 00:35:19;;;;;;;12.77;9.90;;;;;;;10.09;100.00;97909.91;5137722;23;20182;-91
2022/11/15 00:37:41;;;;;;;12.73;10.10;;;;;;;10.10;100.00;97906.38;5141871;23;21238;-92
2022/11/15 00:40:02;;;;;;;13.73;10.40;;;;;;;10.13;100.00;97913.13;5141860;23;20622;-91
2022/11/15 00:42:25;;;;;;;9.97;8.60;;;;;;;10.12;100.00;97914.09;5140929;23;20569;-91
2022/11/15 00:44:47;;;;;;;9.93;8.10;;;;;;;10.13;100.00;97908.78;5139177;23;20650;-91
2022/11/15 00:47:09;;;;;;;10.10;6.97;;;;;;;10.14;100.00;97913.03;5139313;23;20568;-92
2022/11/15 00:49:31;;;;;;;12.57;7.50;;;;;;;10.14;100.00;97910.41;5140859;22;20569;-92
2022/11/15 00:51:52;;;;;;;10.27;7.73;;;;;;;10.14;100.00;97904.38;5140161;23;20197;-92
2022/11/15 00:54:13;;;;;;;12.70;7.93;;;;;;;10.15;100.00;97903.41;5139843;23;20592;-92
2022/11/15 00:56:35;;;;;;;12.43;7.97;;;;;;;10.17;100.00;97907.59;5140016;23;21067;-91
2022/11/15 00:58:58;;;;;;;10.60;8.03;;;;;;;10.15;100.00;97899.06;5141739;23;20663;-91
2022/11/15 01:01:20;;;;;;;9.35;7.25;;;;;;;10.13;100.00;97898.34;5140731;23;20573;-92
2022/11/15 01:03:42;;;;;;;8.33;7.40;;;;;;;10.13;100.00;97894.88;5139406;23;20194;-92
2022/11/15 01:06:04;;;;;;;10.13;7.38;;;;;;;10.13;100.00;97900.97;5141612;22;20631;-92
2022/11/15 01:08:26;;;;;;;9.53;7.73;;;;;;;10.13;99.80;97894.88;5140858;23;20182;-92
2022/11/15 01:10:48;;;;;;;10.57;8.00;;;;;;;10.12;100.00;97888.84;5139735;23;20659;-92
2022/11/15 01:13:09;;;;;;;9.70;7.60;;;;;;;10.12;100.00;97882.81;5139958;23;20569;-91
2022/11/15 01:15:32;;;;;;;10.53;7.27;;;;;;;10.11;100.00;97881.16;5140824;22;20646;-92
2022/11/15 01:17:54;;;;;;;12.17;7.37;;;;;;;10.11;100.00;97878.53;5140497;23;20648;-92
2022/11/15 01:20:16;;;;;;;10.63;8.20;;;;;;;10.10;99.85;97872.50;5141992;22;20601;-92
2022/11/15 01:22:37;;;;;;;9.50;7.50;;;;;;;10.09;99.81;97859.59;5142082;23;20576;-91
2022/11/15 01:24:59;;;;;;;10.03;7.63;;;;;;;10.07;100.00;97861.44;5140826;23;20587;-92
2022/11/15 01:27:21;;;;;;;11.70;7.70;;;;;;;10.03;100.00;97858.22;5142452;22;20590;-91
2022/11/15 01:29:43;;;;;;;11.90;9.97;;;;;;;10.02;100.00;97853.94;5140363;23;20611;-92
2022/11/15 01:32:06;;;;;;;12.87;9.57;;;;;;;9.99;100.00;97848.94;5141315;23;21194;-91
2022/11/15 01:34:28;;;;;;;12.67;8.97;;;;;;;9.96;100.00;97849.16;5140016;23;20623;-92
2022/11/15 01:36:49;;;;;;;9.17;7.83;;;;;;;9.92;100.00;97837.28;5139255;23;20578;-92
2022/11/15 01:39:10;;;;;;;9.57;7.80;;;;;;;9.90;99.74;97844.34;5139538;23;20726;-92
2022/11/15 01:41:34;;;;;;;10.47;8.10;;;;;;;9.88;99.20;97845.41;5139736;23;20570;-92
2022/11/15 01:43:57;;;;;;;10.30;8.13;;;;;;;9.85;99.03;97849.06;5139898;23;20619;-92
2022/11/15 01:46:29;;;;;;;11.00;8.20;;;;;;;9.83;99.21;97844.88;5141296;23;20561;-91
2022/11/15 01:48:54;;;;;;;10.40;8.53;;;;;;;9.78;99.24;97846.97;5141006;23;20570;-92
2022/11/15 01:51:18;;;;;;;9.03;7.07;;;;;;;9.75;98.99;97848.97;5141247;23;20581;-92
2022/11/15 01:53:43;;;;;;;8.97;7.27;;;;;;;9.71;98.45;97850.97;5140822;23;20603;-91
2022/11/15 01:56:07;;;;;;;13.80;7.20;;;;;;;9.70;98.77;97845.88;5140159;23;20595;-92
2022/11/15 01:58:29;;;;;;;10.80;7.80;;;;;;;9.67;98.54;97836.47;5141698;22;20608;-92
2022/11/15 02:00:51;;;;;;;10.33;7.70;;;;;;;9.66;98.74;97828.78;5142926;23;20566;-93
2022/11/15 02:03:13;;;;;;;12.30;8.17;;;;;;;9.64;98.50;97833.25;5144191;23;20588;-92
2022/11/15 02:05:36;;;;;;;11.90;7.60;;;;;;;9.63;98.61;97839.41;5140975;23;20588;-91
2022/11/15 02:07:58;;;;;;;9.90;6.90;;;;;;;9.59;98.38;97830.13;5142123;22;20581;-92
2022/11/15 02:18:51;;;;;;;8.13;6.60;;;;;;;9.47;98.17;97820.53;5141786;23;20607;-93
2022/11/15 02:21:20;;;;;;;9.40;7.43;;;;;;;9.45;98.41;97817.22;5140444;23;20185;-92
2022/11/15 02:24:22;;;;;;;11.25;7.65;;;;;;;9.42;98.47;97809.63;5139927;23;20178;-92
2022/11/15 02:27:12;;;;;;;10.15;6.90;;;;;;;9.40;98.52;97814.09;5115505;23;20177;-94
2022/11/15 02:29:46;;;;;;;10.32;7.65;;;;;;;9.37;98.57;97811.72;5140107;23;20225;-94
2022/11/15 02:32:13;;;;;;;8.23;6.70;;;;;;;9.37;98.83;97803.91;5140040;23;20853;-92
2022/11/15 02:34:42;;;;;;;9.23;7.37;;;;;;;9.36;99.02;97802.22;5140012;23;20938;-94
2022/11/15 02:37:11;;;;;;;8.50;6.60;;;;;;;9.35;99.63;97807.53;5140390;23;20672;-91
2022/11/15 02:39:38;;;;;;;9.45;6.47;;;;;;;9.34;99.31;97804.13;5139775;23;20708;-93
2022/11/15 02:42:03;;;;;;;8.27;6.80;;;;;;;9.35;99.50;97797.97;5141429;23;20170;-94
2022/11/15 02:44:27;;;;;;;10.32;6.70;;;;;;;9.36;99.29;97798.81;5140218;23;20592;-92
2022/11/15 02:49:34;;;;;;;9.63;6.53;;;;;;;9.39;99.64;97802.03;5140247;23;20174;-93
2022/11/15 02:51:55;;;;;;;8.90;5.90;;;;;;;9.39;99.87;97800.25;5141079;23;20581;-92
2022/11/15 02:54:22;;;;;;;11.05;6.35;;;;;;;9.40;100.00;97788.91;5138576;23;20182;-93
2022/11/15 02:56:44;;;;;;;9.82;6.38;;;;;;;9.41;100.00;97785.38;5137923;23;20638;-92
2022/11/15 02:59:20;;;;;;;9.87;6.30;;;;;;;9.42;99.81;97784.41;5138086;23;20786;-92
2022/11/15 03:01:51;;;;;;;6.15;5.40;;;;;;;9.43;100.00;97786.09;5137968;23;20560;-91
2022/11/15 03:04:23;;;;;;;7.33;5.27;;;;;;;9.43;100.00;97773.09;5138500;23;20200;-92
2022/11/15 03:06:49;;;;;;;9.60;5.83;;;;;;;9.44;100.00;97790.38;5139619;23;20577;-92
2022/11/15 03:09:15;;;;;;;8.75;6.65;;;;;;;9.46;99.94;97782.47;5139432;23;20573;-92
2022/11/15 03:11:39;;;;;;;8.63;6.60;;;;;;;9.49;100.00;97787.47;5138156;23;20243;-92
2022/11/15 03:14:03;;;;;;;8.00;6.47;;;;;;;9.49;100.00;97780.47;5139090;23;20261;-92
2022/11/15 03:16:28;;;;;;;6.57;5.70;;;;;;;9.51;99.52;97777.75;5139546;23;20174;-93
2022/11/15 03:18:54;;;;;;;8.93;6.40;;;;;;;9.53;100.00;97786.28;5140302;23;20588;-92
2022/11/15 03:21:17;;;;;;;7.80;6.53;;;;;;;9.52;99.72;97777.66;5139096;23;20212;-93
2022/11/15 03:23:41;;;;;;;8.77;6.50;;;;;;;9.51;100.00;97770.78;5139387;23;20577;-93
2022/11/15 03:26:07;;;;;;;8.13;5.80;;;;;;;9.50;100.00;97768.28;5139449;23;20581;-94
2022/11/15 03:28:33;;;;;;;7.20;5.57;;;;;;;9.50;100.00;97768.28;5140103;23;20576;-93
2022/11/15 03:30:56;;;;;;;6.73;5.00;;;;;;;9.48;99.97;97765.78;5139560;23;20877;-93
2022/11/15 03:33:18;;;;;;;9.50;5.87;;;;;;;9.46;99.87;97761.63;5139124;23;21103;-93
2022/11/15 03:35:43;;;;;;;6.80;6.10;;;;;;;9.44;99.75;97763.50;5138301;23;20581;-92
2022/11/15 03:38:09;;;;;;;9.90;6.20;;;;;;;9.42;99.58;97760.16;5139120;23;20178;-92
2022/11/15 03:40:36;;;;;;;7.37;6.20;;;;;;;9.43;99.43;97761.84;5138413;23;20186;-92
2022/11/15 03:43:03;;;;;;;10.93;6.33;;;;;;;9.41;99.99;97753.28;5138151;23;20607;-92
2022/11/15 03:45:28;;;;;;;6.47;5.50;;;;;;;9.39;99.53;97747.38;5139107;23;21414;-92
2022/11/15 03:47:53;;;;;;;9.57;6.30;;;;;;;9.37;99.26;97749.25;5139037;23;20201;-92
2022/11/15 03:55:23;;;;;;;12.33;8.30;;;;;;;9.28;98.96;97736.88;5140532;23;20557;-92
2022/11/15 03:57:50;;;;;;;6.80;5.53;;;;;;;9.26;99.24;97736.16;5139638;23;20607;-93
2022/11/15 04:00:13;;;;;;;8.52;6.38;;;;;;;9.25;98.46;97731.06;5140026;23;20621;-93
2022/11/15 04:02:35;;;;;;;8.95;5.55;;;;;;;9.23;98.99;97736.38;5142517;23;20184;-93
2022/11/15 04:04:56;;;;;;;8.83;6.27;;;;;;;9.23;98.57;97736.38;5142295;23;20201;-92
2022/11/15 04:07:18;;;;;;;7.68;6.32;;;;;;;9.21;98.70;97735.63;5140965;23;20577;-93
2022/11/15 04:10:01;;;;;;;11.10;6.07;;;;;;;9.21;98.62;97735.63;5141113;23;20225;-92
2022/11/15 04:12:30;;;;;;;6.78;5.68;;;;;;;9.22;98.60;97729.50;5142130;23;21122;-93
2022/11/15 04:15:07;;;;;;;9.55;5.45;;;;;;;9.21;98.67;97730.41;5141601;23;20182;-91
2022/11/15 04:17:29;;;;;;;9.10;5.93;;;;;;;9.22;99.18;97734.69;5141522;23;20182;-91
2022/11/15 04:25:09;;;;;;;7.23;5.10;;;;;;;9.22;98.08;97720.88;5140733;23;20177;-92
2022/11/15 04:27:30;;;;;;;8.10;5.38;;;;;;;9.19;98.94;97715.88;5140051;23;20624;-92
2022/11/15 04:29:51;;;;;;;7.93;5.20;;;;;;;9.17;97.96;97713.38;5140210;23;20202;-92
2022/11/15 04:32:14;;;;;;;7.13;5.55;;;;;;;9.16;98.38;97716.09;5138269;23;20261;-92
2022/11/15 04:34:36;;;;;;;7.77;5.77;;;;;;;9.16;98.46;97718.69;5141512;22;20181;-92
2022/11/15 04:39:43;;;;;;;6.57;5.53;;;;;;;9.16;99.19;97722.09;5128716;23;20991;-92
2022/11/15 04:42:05;;;;;;;5.38;4.82;;;;;;;9.15;98.62;97723.03;5142699;23;21171;-93
2022/11/15 04:44:26;;;;;;;6.88;5.00;;;;;;;9.12;98.13;97725.84;5140345;23;20588;-93
2022/11/15 04:46:48;;;;;;;8.35;5.70;;;;;;;9.12;98.22;97719.81;5141146;23;20171;-94
2022/11/15 04:49:11;;;;;;;6.75;5.38;;;;;;;9.14;98.92;97720.53;5141551;23;20517;-93
2022/11/15 04:51:33;;;;;;;7.00;4.90;;;;;;;9.14;98.85;97713.59;5140372;23;20228;-92
2022/11/15 04:53:55;;;;;;;7.13;5.32;;;;;;;9.15;98.55;97714.41;5140357;23;20182;-92
2022/11/15 04:56:16;;;;;;;9.45;5.93;;;;;;;9.14;98.65;97720.53;5140375;23;20668;-92
2022/11/15 04:58:38;;;;;;;8.70;6.20;;;;;;;9.12;98.48;97709.41;5141783;23;20182;-92
2022/11/15 05:01:07;;;;;;;7.35;5.80;;;;;;;9.07;98.48;97712.34;5166784;23;20186;-92
2022/11/15 05:06:10;;;;;;;6.70;5.38;;;;;;;8.95;96.97;97712.34;5140803;23;20725;-92
2022/11/15 05:08:32;;;;;;;9.48;5.95;;;;;;;8.91;96.70;97702.25;5120537;23;20182;-91
2022/11/15 05:10:54;;;;;;;8.65;6.25;;;;;;;8.88;96.83;97702.47;5141238;23;20170;-91
2022/11/15 05:13:15;;;;;;;8.83;6.17;;;;;;;8.84;96.61;97701.00;5138734;23;20535;-91
2022/11/15 05:15:37;;;;;;;9.73;6.68;;;;;;;8.85;97.45;97703.50;5141137;23;20573;-93
2022/11/15 05:18:00;;;;;;;7.47;5.90;;;;;;;8.86;97.58;97699.16;5153973;23;20186;-94
2022/11/15 05:20:22;;;;;;;7.70;5.95;;;;;;;8.84;97.73;97701.00;5148482;23;20206;-93
2022/11/15 05:22:45;;;;;;;8.43;5.90;;;;;;;8.83;97.45;97694.97;5140677;23;20214;-93
2022/11/15 05:25:08;;;;;;;9.35;6.40;;;;;;;8.83;98.04;97696.75;5140869;23;20174;-92
2022/11/15 05:27:30;;;;;;;11.65;6.50;;;;;;;8.84;98.60;97693.19;5141103;23;20205;-93
2022/11/15 05:29:52;;;;;;;7.47;5.80;;;;;;;8.85;98.69;97693.09;5141377;23;20201;-93
2022/11/15 05:32:14;;;;;;;7.37;5.97;;;;;;;8.86;98.25;97689.56;5166392;23;20165;-92
2022/11/15 05:34:35;;;;;;;6.55;5.22;;;;;;;8.84;98.97;97694.03;5140860;23;20572;-92
2022/11/15 05:36:57;;;;;;;9.27;6.43;;;;;;;8.90;98.97;97692.78;5140047;23;20174;-92
2022/11/15 05:39:19;;;;;;;7.40;6.00;;;;;;;8.90;98.99;97695.38;5140041;23;20184;-92
2022/11/15 05:41:45;;;;;;;6.70;5.78;;;;;;;8.89;99.13;97689.34;5139033;23;20206;-92
2022/11/15 05:44:09;;;;;;;8.10;6.78;;;;;;;8.90;98.95;97687.56;5139358;22;20174;-92
2022/11/15 05:46:31;;;;;;;7.03;6.32;;;;;;;8.89;98.92;97680.72;5139893;23;20186;-92
2022/11/15 05:48:53;;;;;;;8.63;7.22;;;;;;;8.89;98.47;97680.72;5141894;23;20166;-92
2022/11/15 05:51:16;;;;;;;8.15;6.22;;;;;;;8.87;98.67;97687.78;5141632;23;20197;-92
2022/11/15 05:53:38;;;;;;;7.35;6.03;;;;;;;8.86;98.86;97681.75;5145751;23;20182;-93
2022/11/15 05:56:01;;;;;;;7.25;5.80;;;;;;;8.85;98.20;97687.06;5142548;23;20623;-93
2022/11/15 05:58:23;;;;;;;9.63;5.90;;;;;;;8.83;98.41;97686.34;5141244;23;20194;-92
2022/11/15 06:00:45;;;;;;;8.25;6.60;;;;;;;8.81;97.69;97693.41;5144122;23;20601;-94
2022/11/15 06:03:07;;;;;;;8.98;7.13;;;;;;;8.80;98.68;97682.19;5142516;23;20175;-92
2022/11/15 06:05:29;;;;;;;8.80;5.70;;;;;;;8.79;98.16;97684.88;5142215;23;20186;-92
2022/11/15 06:07:50;;;;;;;9.65;5.80;;;;;;;8.79;97.70;97687.47;5141340;23;20229;-92
2022/11/15 06:10:12;;;;;;;7.07;6.18;;;;;;;8.78;97.77;97685.81;5139947;23;20645;-92
2022/11/15 06:12:35;;;;;;;10.00;5.68;;;;;;;8.77;97.59;97681.56;5138958;23;20166;-92
2022/11/15 06:14:57;;;;;;;7.43;5.85;;;;;;;8.77;97.46;97682.38;5141842;23;20174;-92
2022/11/15 06:17:19;;;;;;;8.57;5.57;;;;;;;8.78;96.89;97685.81;5139730;23;20182;-92
2022/11/15 06:19:40;;;;;;;9.45;5.95;;;;;;;8.79;98.56;97692.69;5139040;23;20179;-92
2022/11/15 06:22:02;;;;;;;13.15;6.57;;;;;;;8.77;97.65;97692.78;5140979;23;20221;-93
2022/11/15 06:24:23;;;;;;;10.05;5.80;;;;;;;8.78;97.49;97694.47;5138916;23;20265;-92
2022/11/15 06:26:45;;;;;;;7.10;5.40;;;;;;;8.78;97.46;97699.66;5140409;23;20178;-92
2022/11/15 06:29:08;;;;;;;7.15;5.50;;;;;;;8.78;97.42;97691.00;5140412;23;20178;-94
2022/11/15 06:31:30;;;;;;;10.02;6.28;;;;;;;8.79;97.14;97701.31;5140868;23;20181;-95
2022/11/15 06:33:52;;;;;;;8.60;6.32;;;;;;;8.77;97.82;97697.97;5141619;23;20198;-92
2022/11/15 06:36:16;;;;;;;7.80;6.20;;;;;;;8.75;97.05;97699.00;5140496;23;20197;-94
2022/11/15 06:38:38;;;;;;;7.70;6.63;;;;;;;8.74;97.31;97692.16;5140109;23;20170;-95
2022/11/15 06:41:04;;;;;;;8.88;7.97;;;;;;;8.73;96.63;97693.09;5139811;23;21120;-95
2022/11/15 06:43:25;;;;;;;12.43;8.32;;;;;;;8.73;97.42;97693.91;5137330;23;20495;-92
2022/11/15 06:45:48;;;;;;;10.45;6.20;;;;;;;8.74;96.80;97697.38;5139177;23;20494;-94
2022/11/15 06:48:10;;;;;;;8.70;7.07;;;;;;;8.74;97.65;97690.38;5139941;23;20634;-94
2022/11/15 06:50:31;;;;;;;8.77;6.85;;;;;;;8.75;96.92;97692.06;5140933;23;20174;-94
2022/11/15 06:52:54;;;;;;;9.15;6.97;;;;;;;8.76;97.55;97698.09;5139061;23;20608;-95
2022/11/15 06:55:16;;;;;;;8.25;6.07;;;;;;;8.78;97.08;97704.00;5142171;23;20665;-94
2022/11/15 06:57:38;;;;;;;9.05;6.60;;;;;;;8.77;96.83;97703.19;5141370;23;20222;-94
2022/11/15 06:59:59;;;;;;;14.00;7.35;;;;;;;8.78;96.88;97704.00;5140810;23;20184;-94
2022/11/15 07:02:22;;;;;;;9.20;6.53;;;;;;;8.83;97.18;97697.56;5141989;22;20198;-93
2022/11/15 07:04:44;;;;;;;9.25;6.63;;;;;;;8.92;97.42;97702.97;5144019;23;20248;-94
2022/11/15 07:07:06;;;;;;;8.38;7.15;;;;;;;9.00;97.37;97697.25;5141507;23;20170;-93
2022/11/15 07:09:28;;;;;;;7.90;6.45;;;;;;;9.20;96.99;97701.91;5141178;23;20256;-93
2022/11/15 07:11:49;;;;;;;6.95;6.25;;;;;;;9.38;96.49;97701.47;5139716;23;20174;-92
2022/11/15 07:14:11;;;;;;;9.73;6.97;;;;;;;9.50;96.23;97704.06;5140991;22;20162;-92
2022/11/15 07:16:32;;;;;;;8.97;7.20;;;;;;;9.58;96.12;97703.53;5138855;23;20240;-89
2022/11/15 07:18:56;;;;;;;9.18;6.82;;;;;;;9.68;95.57;97707.13;5139947;23;20700;-88
2022/11/15 07:21:17;;;;;;;9.13;7.20;;;;;;;9.79;95.27;97713.25;5139049;23;20663;-88
2022/11/15 07:23:48;;;;;;;8.75;6.32;;;;;;;9.89;94.87;97716.84;5136338;23;20658;-87
2022/11/15 07:26:10;;;;;;;8.00;6.53;;;;;;;9.93;94.32;97713.06;5136442;23;20270;-88
2022/11/15 07:28:32;;;;;;;7.47;6.50;;;;;;;9.94;94.75;97717.38;5137507;23;20611;-88
2022/11/15 07:30:53;;;;;;;10.90;6.63;;;;;;;10.00;94.77;97711.75;5137829;23;21109;-87
2022/11/15 07:33:15;;;;;;;9.23;6.90;;;;;;;10.11;94.22;97714.41;5137805;23;20188;-87
2022/11/15 07:35:38;;;;;;;10.38;6.80;;;;;;;10.21;94.53;97716.22;5139957;22;20585;-87
2022/11/15 07:38:01;;;;;;;10.40;7.28;;;;;;;10.24;93.58;97713.41;5141414;23;20182;-87
2022/11/15 07:40:23;;;;;;;12.20;6.80;;;;;;;10.34;93.17;97716.97;5139009;23;20631;-87
2022/11/15 07:42:53;;;;;;;10.33;6.67;;;;;;;10.49;93.56;97721.91;5137986;23;20617;-88
2022/11/15 07:45:16;;;;;;;9.10;6.90;;;;;;;10.58;92.80;97716.00;5139032;22;20569;-88
2022/11/15 07:47:37;;;;;;;10.50;7.82;;;;;;;10.66;94.03;97705.00;5138074;23;20920;-87
2022/11/15 07:49:59;;;;;;;10.55;7.95;;;;;;;10.78;93.15;97717.97;5138872;23;20182;-87
2022/11/15 07:52:22;;;;;;;9.17;7.60;;;;;;;10.85;92.98;97716.53;5138230;23;20174;-88
2022/11/15 07:54:43;;;;;;;9.70;7.03;;;;;;;10.90;92.48;97720.47;5138396;23;20572;-88
2022/11/15 07:57:06;;;;;;;11.83;6.70;;;;;;;10.97;91.88;97716.44;5137566;23;20625;-87
2022/11/15 07:59:28;;;;;;;9.07;6.50;;;;;;;11.14;91.38;97716.00;5138695;23;20612;-88
2022/11/15 08:01:50;;;;;;;7.70;6.90;;;;;;;11.32;92.29;97720.63;5137648;23;20615;-87
2022/11/15 08:04:12;;;;;;;8.70;6.70;;;;;;;11.48;91.27;97720.31;5137165;23;20225;-87
2022/11/15 08:06:33;;;;;;;10.40;6.90;;;;;;;11.65;90.25;97717.19;5137845;23;21097;-86
2022/11/15 08:08:57;;;;;;;8.07;6.10;;;;;;;11.70;91.88;97715.91;5136507;23;20578;-87
2022/11/15 08:11:18;;;;;;;10.53;6.23;;;;;;;11.75;91.32;97706.72;5137362;23;20581;-87
2022/11/15 08:13:40;;;;;;;9.70;5.90;;;;;;;11.84;91.10;97710.41;5137227;23;20577;-87
2022/11/15 08:16:05;;;;;;;7.40;5.70;;;;;;;11.97;89.84;97713.72;5136882;23;20648;-87
2022/11/15 08:18:26;;;;;;;8.60;5.47;;;;;;;12.02;91.64;97707.16;5136104;23;20578;-88
2022/11/15 08:20:48;;;;;;;7.63;4.97;;;;;;;12.20;91.69;97710.91;5138367;23;20574;-87
2022/11/15 08:23:11;;;;;;;7.30;5.57;;;;;;;12.21;90.14;97715.19;5135338;23;20613;-88
2022/11/15 08:25:35;;;;;;;7.10;5.53;;;;;;;12.04;91.26;97699.19;5136702;23;20578;-88
2022/11/15 08:27:58;;;;;;;8.10;6.47;;;;;;;11.90;91.05;97694.25;5135693;23;20584;-86
2022/11/15 08:30:21;;;;;;;9.53;6.57;;;;;;;11.82;92.11;97688.81;5136249;23;20628;-87
2022/11/15 08:32:43;;;;;;;7.53;5.70;;;;;;;11.74;91.69;97692.97;5136021;23;20565;-88
2022/11/15 08:35:06;;;;;;;8.93;5.57;;;;;;;11.81;91.62;97687.13;5136180;23;20602;-88
2022/11/15 08:37:28;;;;;;;7.30;5.53;;;;;;;11.97;90.49;97701.47;5135683;23;20931;-89
2022/11/15 08:39:50;;;;;;;9.13;5.90;;;;;;;12.12;91.89;97696.78;5134036;23;20608;-88
2022/11/15 08:42:14;;;;;;;7.50;6.30;;;;;;;12.38;91.71;97693.72;5137494;23;20597;-89
2022/11/15 08:44:40;;;;;;;8.27;6.83;;;;;;;12.70;92.33;97690.97;5136724;23;20585;-89
2022/11/15 08:47:02;;;;;;;10.90;7.00;;;;;;;12.96;90.62;97686.16;5138530;23;20577;-89
2022/11/15 08:49:23;;;;;;;7.50;5.60;;;;;;;13.06;90.33;97687.06;5139549;23;20585;-88
2022/11/15 08:51:44;;;;;;;9.53;5.70;;;;;;;13.00;90.30;97680.53;5139037;23;20590;-89
2022/11/15 08:54:06;;;;;;;7.60;6.30;;;;;;;12.93;90.98;97679.44;5141139;23;20589;-89
2022/11/15 08:56:27;;;;;;;9.17;6.30;;;;;;;12.83;91.26;97675.09;5139646;23;20578;-89
2022/11/15 08:58:50;;;;;;;8.70;7.50;;;;;;;12.76;91.45;97676.50;5139685;23;20582;-89
2022/11/15 09:01:16;;;;;;;16.33;12.27;;;;;;;12.70;91.43;97667.41;5140173;23;21136;-89
2022/11/15 09:03:41;;;;;;;15.80;12.83;;;;;;;12.66;91.51;97666.94;5140496;23;20645;-89
2022/11/15 09:06:02;;;;;;;9.97;7.30;;;;;;;12.65;91.75;97666.13;5138964;23;20582;-89
2022/11/15 09:08:24;;;;;;;6.67;5.70;;;;;;;12.64;93.29;97666.25;5140294;23;20586;-89
2022/11/15 09:11:06;;;;;;;7.67;5.60;;;;;;;12.64;93.00;97663.63;5138575;23;20963;-89
2022/11/15 09:13:28;;;;;;;7.13;5.47;;;;;;;12.80;92.37;97664.84;5137482;23;20655;-89
2022/11/15 09:15:51;;;;;;;7.23;5.57;;;;;;;12.97;92.19;97657.25;5135845;23;20620;-89
2022/11/15 09:18:12;;;;;;;6.00;5.07;;;;;;;13.17;91.81;97663.41;5137640;23;20583;-88
2022/11/15 09:20:34;;;;;;;8.70;5.87;;;;;;;13.41;91.73;97668.22;5141259;23;20577;-88
2022/11/15 09:23:00;;;;;;;7.30;5.27;;;;;;;13.61;91.12;97663.88;5140656;22;20644;-88
2022/11/15 09:25:22;;;;;;;5.93;5.33;;;;;;;13.78;92.30;97664.03;5138922;23;20582;-88
2022/11/15 09:27:43;;;;;;;6.17;5.57;;;;;;;13.77;90.13;97655.38;5139762;23;20578;-88
2022/11/15 09:30:06;;;;;;;6.70;6.00;;;;;;;13.67;90.70;97657.13;5138728;23;20609;-89
2022/11/15 09:32:31;;;;;;;7.97;6.03;;;;;;;13.62;90.54;97660.28;5140645;23;20578;-89
2022/11/15 09:34:59;;;;;;;8.87;5.97;;;;;;;13.60;91.32;97656.97;5139365;23;20658;-89
2022/11/15 09:37:21;;;;;;;10.60;6.37;;;;;;;13.61;92.01;97650.78;5139620;23;20588;-89
2022/11/15 09:39:43;;;;;;;6.53;5.43;;;;;;;13.62;91.85;97648.03;5139488;23;20585;-89
2022/11/15 09:42:18;;;;;;;6.80;5.30;;;;;;;13.66;93.31;97646.78;5139010;23;20641;-89
2022/11/15 09:44:52;;;;;;;5.77;5.17;;;;;;;13.72;93.36;97644.44;5138650;23;20579;-89
2022/11/15 09:47:39;;;;;;;9.90;8.03;;;;;;;13.81;93.66;97642.81;5140274;23;20606;-89
2022/11/15 09:50:02;;;;;;;8.10;6.20;;;;;;;13.88;93.42;97644.75;5115074;23;20581;-89
2022/11/15 09:52:10;;;;;;;10.03;5.50;;;;;;;13.98;92.61;97650.00;5114288;23;20676;-88
2022/11/15 09:54:22;;;;;;;6.23;5.17;;;;;;;14.11;93.02;97643.56;5138974;23;20596;-88
2022/11/15 09:56:45;;;;;;;6.40;4.50;;;;;;;14.21;92.08;97636.53;5138152;23;21218;-88
2022/11/15 09:58:57;;;;;;;6.37;4.30;;;;;;;14.25;91.74;97637.91;5114112;23;20573;-89
2022/11/15 10:01:04;;;;;;;6.90;3.80;;;;;;;14.31;91.62;97638.19;5114537;23;20627;-88
2022/11/15 10:03:12;;;;;;;4.90;3.83;;;;;;;14.40;90.50;97632.13;5140847;23;20620;-88
2022/11/15 10:05:18;;;;;;;5.87;4.20;;;;;;;14.48;91.62;97636.63;5114847;23;20573;-89
2022/11/15 10:07:24;;;;;;;5.00;4.03;;;;;;;14.56;91.45;97635.00;5113229;23;20592;-89
2022/11/15 10:09:30;;;;;;;5.00;4.10;;;;;;;14.71;90.45;97636.22;5139093;23;20584;-89
2022/11/15 10:11:35;;;;;;;7.07;4.70;;;;;;;14.89;89.15;97637.97;5137865;23;20956;-89
2022/11/15 10:13:42;;;;;;;9.27;4.13;;;;;;;15.09;90.40;97637.78;5113151;23;20577;-89
2022/11/15 10:15:47;;;;;;;8.10;4.10;;;;;;;15.27;89.07;97635.25;5113838;23;20580;-89
2022/11/15 10:18:05;;;;;;;5.97;4.00;;;;;;;15.34;89.01;97631.06;5139213;22;20625;-88
2022/11/15 10:20:16;;;;;;;5.70;3.73;;;;;;;15.28;86.69;97623.78;5138575;23;20607;-89
2022/11/15 10:22:26;;;;;;;7.47;4.47;;;;;;;15.20;87.88;97619.22;5138810;23;20672;-88
2022/11/15 10:24:35;;;;;;;6.30;4.00;;;;;;;15.16;87.34;97617.00;5113604;23;20588;-88
2022/11/15 10:26:39;;;;;;;6.57;5.07;;;;;;;15.07;82.40;97615.25;5138045;23;20615;-88
2022/11/15 10:28:42;;;;;;;6.87;4.67;;;;;;;15.05;83.51;97617.19;5112582;23;21128;-88
2022/11/15 10:30:46;;;;;;;6.37;4.20;;;;;;;15.14;83.13;97611.06;5137936;23;20633;-88
2022/11/15 10:32:50;;;;;;;6.87;4.10;;;;;;;15.25;83.96;97614.38;5137628;23;20575;-89
2022/11/15 10:34:53;;;;;;;5.47;4.10;;;;;;;15.35;85.61;97609.06;5138797;23;20580;-89
2022/11/15 10:36:58;;;;;;;4.80;4.00;;;;;;;15.40;85.54;97604.22;5140310;22;20625;-89
2022/11/15 10:39:02;;;;;;;6.60;3.90;;;;;;;15.42;85.38;97604.88;5138075;23;21138;-88
2022/11/15 10:41:08;;;;;;;4.13;3.73;;;;;;;15.42;83.46;97599.63;5137701;23;20579;-89
2022/11/15 10:43:17;;;;;;;4.43;3.80;;;;;;;15.42;82.94;97597.81;5112822;23;20644;-89
2022/11/15 10:45:25;;;;;;;5.60;4.07;;;;;;;15.43;84.54;97596.84;5137989;23;21159;-89
2022/11/15 10:47:30;;;;;;;5.60;4.00;;;;;;;15.46;85.15;97598.38;5113062;23;20570;-89
2022/11/15 10:49:54;;;;;;;5.03;3.67;;;;;;;15.48;86.18;97583.28;5112427;23;20712;-88
2022/11/15 10:52:00;;;;;;;5.97;3.57;;;;;;;15.54;87.19;97577.44;5111812;23;20178;-88
2022/11/15 10:54:07;;;;;;;5.50;3.87;;;;;;;15.55;87.04;97578.09;5136394;23;21065;-89
2022/11/15 10:56:16;;;;;;;5.37;4.13;;;;;;;15.59;86.78;97576.00;5109723;23;20581;-90
2022/11/15 10:58:31;;;;;;;4.80;3.90;;;;;;;15.61;85.99;97582.75;5110406;23;21141;-88
2022/11/15 11:00:38;;;;;;;6.07;4.10;;;;;;;15.63;86.88;97567.66;5136594;23;20604;-90
2022/11/15 11:02:46;;;;;;;6.27;3.63;;;;;;;15.67;85.18;97571.66;5134924;23;21002;-88
2022/11/15 11:04:53;;;;;;;5.43;4.07;;;;;;;15.68;85.77;97562.81;5136401;23;20604;-88
2022/11/15 11:06:59;;;;;;;4.63;4.13;;;;;;;15.71;84.31;97564.28;5137473;23;21109;-88
2022/11/15 11:09:04;;;;;;;7.20;3.30;;;;;;;15.73;82.14;97563.19;5112321;23;20950;-88
2022/11/15 11:11:08;;;;;;;4.60;3.20;;;;;;;15.74;82.04;97562.22;5112559;23;20589;-89
2022/11/15 11:13:15;;;;;;;4.97;3.67;;;;;;;15.74;80.69;97556.94;5111750;23;20708;-89
2022/11/15 11:15:19;;;;;;;5.70;3.30;;;;;;;15.76;81.43;97560.25;5137496;23;20553;-86
2022/11/15 11:17:31;;;;;;;4.80;4.30;;;;;;;15.78;81.74;97560.91;5112986;23;20887;-86
2022/11/15 11:19:48;;;;;;;5.17;3.97;;;;;;;15.80;81.99;97548.47;5112100;23;20577;-88
2022/11/15 11:21:56;;;;;;;5.23;3.10;;;;;;;15.82;81.38;97553.56;5161275;23;20562;-89
2022/11/15 11:24:06;;;;;;;6.00;3.50;;;;;;;15.82;83.72;97557.03;5113080;23;20734;-89
2022/11/15 11:26:19;;;;;;;5.00;3.50;;;;;;;15.84;83.59;97555.06;5137490;23;20626;-89
2022/11/15 11:28:32;;;;;;;10.33;6.23;;;;;;;15.85;83.63;97551.47;5112906;23;21148;-88
2022/11/15 11:30:46;;;;;;;7.63;5.50;;;;;;;15.87;85.45;97560.03;5113021;23;20671;-88
2022/11/15 11:33:03;;;;;;;7.70;4.57;;;;;;;15.90;84.05;97557.09;5137578;23;20587;-88
2022/11/15 11:35:14;;;;;;;7.40;3.90;;;;;;;15.90;84.77;97556.28;5136629;23;20580;-88
2022/11/15 11:37:22;;;;;;;7.77;5.23;;;;;;;15.89;83.55;97547.56;5113642;23;20580;-88